TimeCST,TemperatureF,Dew PointF,Humidity,Sea Level PressureIn,VisibilityMPH,Wind Direction,Wind SpeedMPH,Gust SpeedMPH,PrecipitationIn,Events,Conditions,WindDirDegrees,DateUTC
12:15 AM,33.8,30.2,87,29.95,10.0,ESE,10.4,-,N/A,,Overcast,120,2012-12-15 06:15:00
12:35 AM,33.8,30.2,87,29.94,10.0,SE,10.4,16.1,N/A,,Overcast,130,2012-12-15 06:35:00
12:55 AM,33.8,30.2,87,29.92,10.0,ESE,10.4,-,N/A,,Overcast,110,2012-12-15 06:55:00
1:15 AM,35.6,32.0,87,29.91,10.0,ESE,9.2,18.4,N/A,,Overcast,110,2012-12-15 07:15:00
1:35 AM,35.6,32.0,87,29.91,10.0,ESE,10.4,-,N/A,,Overcast,120,2012-12-15 07:35:00
1:55 AM,35.6,32.0,87,29.91,7.0,ESE,10.4,-,N/A,,Overcast,120,2012-12-15 07:55:00
2:15 AM,35.6,32.0,87,29.90,10.0,ESE,10.4,-,N/A,,Overcast,120,2012-12-15 08:15:00
2:35 AM,35.6,32.0,87,29.88,7.0,ESE,11.5,17.3,N/A,,Overcast,120,2012-12-15 08:35:00
2:55 AM,35.6,33.8,93,29.87,7.0,ESE,11.5,21.9,N/A,,Overcast,120,2012-12-15 08:55:00
3:15 AM,35.6,33.8,93,29.86,7.0,ESE,9.2,-,N/A,,Overcast,120,2012-12-15 09:15:00
3:35 AM,35.6,33.8,93,29.86,7.0,ESE,9.2,-,N/A,,Overcast,120,2012-12-15 09:35:00
3:55 AM,35.6,33.8,93,29.85,7.0,ESE,11.5,18.4,N/A,,Overcast,120,2012-12-15 09:55:00
4:15 AM,35.6,33.8,93,29.85,7.0,SE,9.2,17.3,N/A,,Overcast,130,2012-12-15 10:15:00
4:35 AM,37.4,33.8,87,29.84,10.0,ESE,9.2,16.1,N/A,,Overcast,120,2012-12-15 10:35:00
4:55 AM,37.4,33.8,87,29.82,7.0,ESE,10.4,16.1,N/A,,Overcast,120,2012-12-15 10:55:00
5:15 AM,37.4,35.6,93,29.81,7.0,ESE,12.7,-,N/A,,Overcast,120,2012-12-15 11:15:00
5:35 AM,37.4,35.6,93,29.81,7.0,ESE,9.2,17.3,N/A,,Mostly Cloudy,120,2012-12-15 11:35:00
5:55 AM,37.4,35.6,93,29.80,7.0,ESE,10.4,-,N/A,,Scattered Clouds,120,2012-12-15 11:55:00
6:15 AM,37.4,35.6,93,29.79,7.0,ESE,9.2,-,N/A,,Scattered Clouds,110,2012-12-15 12:15:00
6:35 AM,37.4,35.6,93,29.78,7.0,ESE,8.1,-,N/A,,Scattered Clouds,110,2012-12-15 12:35:00
6:55 AM,37.4,35.6,93,29.77,7.0,ESE,10.4,-,N/A,,Scattered Clouds,120,2012-12-15 12:55:00
7:15 AM,37.4,35.6,93,29.77,7.0,ESE,10.4,-,N/A,,Overcast,120,2012-12-15 13:15:00
7:35 AM,37.4,35.6,93,29.76,7.0,ESE,13.8,19.6,N/A,,Overcast,120,2012-12-15 13:35:00
8:15 AM,37.4,35.6,93,29.74,4.0,ESE,11.5,-,N/A,,Mostly Cloudy,120,2012-12-15 14:15:00
8:35 AM,37.4,35.6,93,29.73,4.0,ESE,13.8,19.6,N/A,,Scattered Clouds,120,2012-12-15 14:35:00
8:55 AM,39.2,35.6,87,29.72,5.0,ESE,10.4,17.3,N/A,,Scattered Clouds,110,2012-12-15 14:55:00
9:15 AM,37.4,35.6,93,29.71,3.0,ESE,12.7,19.6,N/A,Rain,Rain,120,2012-12-15 15:15:00
9:35 AM,37.4,35.6,93,29.71,3.0,ESE,10.4,-,N/A,Rain,Light Rain,120,2012-12-15 15:35:00
9:55 AM,37.4,35.6,93,29.71,4.0,ESE,10.4,16.1,N/A,,Overcast,120,2012-12-15 15:55:00
10:15 AM,37.4,35.6,93,29.70,3.0,ESE,13.8,19.6,N/A,,Overcast,120,2012-12-15 16:15:00
10:35 AM,37.4,35.6,93,29.69,2.5,ESE,10.4,-,N/A,Rain,Light Rain,120,2012-12-15 16:35:00
10:55 AM,37.4,35.6,93,29.68,3.0,SE,12.7,18.4,N/A,Rain,Light Rain,130,2012-12-15 16:55:00
11:15 AM,37.4,37.4,100,29.67,4.0,SE,12.7,18.4,N/A,Rain,Light Rain,130,2012-12-15 17:15:00
11:35 AM,37.4,35.6,93,29.66,3.0,ESE,10.4,18.4,N/A,Rain,Light Rain,120,2012-12-15 17:35:00
11:55 AM,37.4,37.4,100,29.64,4.0,ESE,12.7,17.3,N/A,,Overcast,120,2012-12-15 17:55:00
12:15 PM,37.4,35.6,93,29.63,7.0,ESE,12.7,19.6,N/A,,Light Drizzle,120,2012-12-15 18:15:00
12:35 PM,37.4,35.6,93,29.61,7.0,ESE,12.7,18.4,N/A,Rain,Light Rain,120,2012-12-15 18:35:00
12:55 PM,37.4,35.6,93,29.60,5.0,SE,11.5,18.4,N/A,Rain,Light Rain,130,2012-12-15 18:55:00
1:15 PM,37.4,35.6,93,29.59,7.0,ESE,11.5,-,N/A,Rain,Light Rain,120,2012-12-15 19:15:00
1:35 PM,37.4,35.6,93,29.58,7.0,ESE,9.2,-,N/A,Rain,Light Rain,120,2012-12-15 19:35:00
1:55 PM,37.4,35.6,93,29.57,10.0,SE,10.4,-,N/A,Rain,Light Rain,130,2012-12-15 19:55:00
2:15 PM,37.4,35.6,93,29.57,10.0,ESE,8.1,-,N/A,Rain,Light Rain,120,2012-12-15 20:15:00
2:35 PM,37.4,35.6,93,29.56,10.0,SE,9.2,-,N/A,Rain,Light Rain,130,2012-12-15 20:35:00
2:55 PM,37.4,35.6,93,29.56,10.0,ESE,9.2,-,N/A,,Overcast,120,2012-12-15 20:55:00
3:15 PM,37.4,35.6,93,29.56,10.0,ESE,6.9,-,N/A,,Overcast,120,2012-12-15 21:15:00
3:35 PM,37.4,35.6,93,29.56,10.0,SE,9.2,-,N/A,,Overcast,130,2012-12-15 21:35:00
3:55 PM,37.4,35.6,93,29.55,10.0,SE,8.1,-,N/A,,Overcast,130,2012-12-15 21:55:00
4:15 PM,37.4,35.6,93,29.55,10.0,ESE,6.9,-,N/A,,Overcast,120,2012-12-15 22:15:00
4:35 PM,37.4,35.6,93,29.55,10.0,SE,5.8,-,N/A,,Overcast,130,2012-12-15 22:35:00
4:55 PM,37.4,35.6,93,29.55,5.0,ESE,5.8,-,N/A,,Overcast,120,2012-12-15 22:55:00
5:15 PM,37.4,35.6,93,29.55,3.0,SE,5.8,-,N/A,,Overcast,130,2012-12-15 23:15:00
5:35 PM,37.4,35.6,93,29.55,2.5,ESE,6.9,-,N/A,,Overcast,110,2012-12-15 23:35:00
5:55 PM,37.4,35.6,93,29.54,2.5,ESE,5.8,-,N/A,,Overcast,110,2012-12-15 23:55:00
6:15 PM,37.4,35.6,93,29.54,3.0,ESE,5.8,-,N/A,,Overcast,120,2012-12-16 00:15:00
6:35 PM,37.4,35.6,93,29.54,5.0,ESE,5.8,-,N/A,,Overcast,120,2012-12-16 00:35:00
6:55 PM,37.4,35.6,93,29.54,7.0,ESE,4.6,-,N/A,,Overcast,120,2012-12-16 00:55:00
7:15 PM,37.4,35.6,93,29.54,7.0,ESE,5.8,-,N/A,,Overcast,110,2012-12-16 01:15:00
7:35 PM,37.4,35.6,93,29.53,7.0,East,3.5,-,N/A,,Overcast,100,2012-12-16 01:35:00
7:55 PM,37.4,35.6,93,29.53,7.0,ESE,5.8,-,N/A,,Overcast,110,2012-12-16 01:55:00
8:15 PM,35.6,35.6,100,29.53,7.0,ESE,4.6,-,N/A,,Overcast,110,2012-12-16 02:15:00
8:35 PM,35.6,35.6,100,29.53,7.0,ESE,3.5,-,N/A,,Overcast,120,2012-12-16 02:35:00
8:55 PM,35.6,35.6,100,29.53,7.0,ESE,3.5,-,N/A,,Overcast,110,2012-12-16 02:55:00
9:15 PM,35.6,35.6,100,29.52,4.0,Calm,Calm,-,N/A,,Overcast,0,2012-12-16 03:15:00
9:35 PM,35.6,35.6,100,29.52,2.5,Calm,Calm,-,N/A,,Overcast,0,2012-12-16 03:35:00
9:55 PM,35.6,35.6,100,29.51,2.0,Calm,Calm,-,N/A,,Overcast,0,2012-12-16 03:55:00
10:15 PM,35.6,35.6,100,29.51,1.5,Calm,Calm,-,N/A,,Mist,0,2012-12-16 04:15:00
10:35 PM,35.6,35.6,100,29.51,1.2,Calm,Calm,-,N/A,,Overcast,0,2012-12-16 04:35:00
10:55 PM,35.6,35.6,100,29.51,0.8,Calm,Calm,-,N/A,,Overcast,0,2012-12-16 04:55:00
11:15 PM,35.6,35.6,100,29.51,0.5,Calm,Calm,-,N/A,Fog,Fog,0,2012-12-16 05:15:00
11:35 PM,35.6,35.6,100,29.51,0.5,Calm,Calm,-,N/A,Fog,Fog,0,2012-12-16 05:35:00
11:55 PM,35.6,35.6,100,29.50,0.2,Calm,Calm,-,N/A,,Light Drizzle,0,2012-12-16 05:55:00